Time;durP1;ratioP1;P1;durP2;ratioP2;P2;SDS_P1;SDS_P2;PMS_P1;PMS_P2;Temp;Humidity;BMP_temperature;BMP_pressure;BME280_temperature;BME280_humidity;BME280_pressure;Samples;Min_cycle;Max_cycle;Signal;HPM_P1;HPM_P2
2023/06/02 00:01:18;;;;;;;9.77;3.50;;;10.80;95.70;;;;;;5093655;28;20856;-62
2023/06/02 00:03:47;;;;;;;9.50;3.70;;;10.80;95.80;;;;;;5093609;28;20501;-62
2023/06/02 00:06:15;;;;;;;8.93;3.23;;;10.80;96.00;;;;;;5093263;28;20450;-63
2023/06/02 00:08:42;;;;;;;8.38;3.58;;;10.80;96.10;;;;;;5093020;28;20929;-62
2023/06/02 00:11:11;;;;;;;16.70;4.80;;;10.80;96.20;;;;;;5093294;28;20204;-63
2023/06/02 00:13:39;;;;;;;10.60;3.93;;;10.80;96.20;;;;;;5093453;28;20660;-63
2023/06/02 00:16:06;;;;;;;6.27;3.23;;;10.80;96.10;;;;;;5093619;28;20481;-62
2023/06/02 00:18:37;;;;;;;10.97;3.60;;;10.70;96.00;;;;;;5092836;28;20943;-62
2023/06/02 00:21:06;;;;;;;7.20;2.80;;;10.70;96.00;;;;;;5093328;28;20425;-62
2023/06/02 00:23:34;;;;;;;7.37;3.90;;;10.70;95.90;;;;;;5092771;28;20475;-62
2023/06/02 00:26:01;;;;;;;16.90;3.83;;;10.70;95.90;;;;;;5093024;28;20470;-60
2023/06/02 00:28:28;;;;;;;9.43;3.40;;;10.70;95.80;;;;;;5096550;28;20525;-62
2023/06/02 00:30:56;;;;;;;10.57;3.53;;;10.70;95.80;;;;;;5096831;28;20709;-62
2023/06/02 00:33:23;;;;;;;12.67;3.40;;;10.60;95.70;;;;;;5096369;28;20524;-62
2023/06/02 00:35:50;;;;;;;11.20;3.63;;;10.60;95.60;;;;;;5096854;28;20533;-61
2023/06/02 00:38:18;;;;;;;4.97;2.75;;;10.60;95.60;;;;;;5110031;22;20601;-58
2023/06/02 00:40:45;;;;;;;7.65;3.28;;;10.60;95.90;;;;;;5096919;28;20196;-59
2023/06/02 00:43:12;;;;;;;3.95;3.20;;;10.60;95.60;;;;;;5096956;28;20390;-59
2023/06/02 00:45:39;;;;;;;7.83;3.73;;;10.60;95.60;;;;;;5097651;28;20287;-59
2023/06/02 00:48:06;;;;;;;12.23;3.70;;;10.60;95.50;;;;;;5097691;28;20429;-59
2023/06/02 00:50:33;;;;;;;11.87;3.90;;;10.60;95.50;;;;;;5097732;28;20457;-59
2023/06/02 00:53:01;;;;;;;9.77;3.78;;;10.60;95.50;;;;;;5097714;28;20438;-59
2023/06/02 00:55:31;;;;;;;9.33;3.60;;;10.60;95.40;;;;;;5096748;28;20502;-60
2023/06/02 00:57:59;;;;;;;12.40;4.00;;;10.60;95.50;;;;;;5096797;28;20862;-58
2023/06/02 01:00:27;;;;;;;6.20;3.27;;;10.50;95.50;;;;;;5096809;28;20447;-58
2023/06/02 01:02:57;;;;;;;10.80;3.53;;;10.50;95.60;;;;;;5096480;28;21034;-58
2023/06/02 01:05:24;;;;;;;17.65;4.47;;;10.50;95.60;;;;;;5097173;28;20290;-58
2023/06/02 01:07:58;;;;;;;7.50;3.17;;;10.50;95.70;;;;;;5096499;28;20228;-58
2023/06/02 01:10:26;;;;;;;7.00;3.40;;;10.50;95.80;;;;;;5096653;28;20431;-58
2023/06/02 01:12:55;;;;;;;7.70;3.53;;;10.50;95.80;;;;;;5096571;28;20442;-59
2023/06/02 01:15:21;;;;;;;6.50;3.78;;;10.50;95.80;;;;;;5096361;28;20442;-59
2023/06/02 01:17:50;;;;;;;11.60;5.70;;;10.50;95.80;;;;;;5096040;28;20281;-58
2023/06/02 01:20:21;;;;;;;9.03;3.97;;;10.50;95.70;;;;;;5096227;28;20478;-58
2023/06/02 01:22:57;;;;;;;9.32;3.75;;;10.40;95.60;;;;;;5096545;28;20494;-59
2023/06/02 01:25:27;;;;;;;6.37;3.83;;;10.40;95.70;;;;;;5096758;28;20192;-59
2023/06/02 01:27:56;;;;;;;9.07;4.45;;;10.40;95.80;;;;;;5097192;28;20457;-59
2023/06/02 01:30:23;;;;;;;8.75;4.43;;;10.40;95.80;;;;;;5097019;28;20257;-58
2023/06/02 01:32:55;;;;;;;8.30;3.92;;;10.40;95.80;;;;;;5096309;28;20200;-58
2023/06/02 01:35:25;;;;;;;9.48;3.63;;;10.40;95.70;;;;;;5097011;28;20638;-57
2023/06/02 01:37:56;;;;;;;5.50;3.00;;;10.40;95.80;;;;;;5095666;28;20228;-59
2023/06/02 01:40:26;;;;;;;7.70;3.95;;;10.40;96.00;;;;;;5095909;28;20496;-59
2023/06/02 01:42:54;;;;;;;10.07;3.70;;;10.40;96.00;;;;;;5096101;28;20586;-59
2023/06/02 01:45:22;;;;;;;7.60;3.70;;;10.40;96.00;;;;;;5096693;28;20461;-58
2023/06/02 01:47:49;;;;;;;16.70;3.67;;;10.30;96.00;;;;;;5096254;28;20463;-59
2023/06/02 01:50:16;;;;;;;12.52;4.03;;;10.30;96.00;;;;;;5096001;28;20504;-58
2023/06/02 01:52:42;;;;;;;12.38;4.63;;;10.30;96.10;;;;;;5096362;28;20202;-58
2023/06/02 01:55:10;;;;;;;8.47;4.13;;;10.30;96.20;;;;;;5096420;28;20201;-58
2023/06/02 01:57:38;;;;;;;8.63;3.97;;;10.30;96.30;;;;;;5096488;28;20482;-58
2023/06/02 02:00:08;;;;;;;9.35;3.80;;;10.40;96.40;;;;;;5096227;28;20204;-58
2023/06/02 02:02:35;;;;;;;11.35;3.40;;;10.40;96.50;;;;;;5095939;28;20211;-58
2023/06/02 02:05:02;;;;;;;9.80;3.40;;;10.30;96.60;;;;;;5095326;28;20689;-58
2023/06/02 02:07:29;;;;;;;15.57;4.33;;;10.30;96.80;;;;;;5095245;28;20227;-60
2023/06/02 02:09:56;;;;;;;7.37;3.53;;;10.30;97.00;;;;;;5095280;28;20456;-58
2023/06/02 02:12:23;;;;;;;11.03;4.17;;;10.30;97.00;;;;;;5095610;28;20461;-59
2023/06/02 02:14:56;;;;;;;7.25;3.65;;;10.30;97.20;;;;;;5095152;28;20450;-57
2023/06/02 02:17:25;;;;;;;9.13;3.83;;;10.30;97.70;;;;;;5095119;28;20716;-58
2023/06/02 02:19:55;;;;;;;11.63;3.90;;;10.30;97.50;;;;;;5095170;28;20739;-59
2023/06/02 02:22:22;;;;;;;8.90;3.70;;;10.30;97.70;;;;;;5095292;28;20442;-59
2023/06/02 02:24:49;;;;;;;9.55;3.92;;;10.30;97.90;;;;;;5095806;28;20446;-59
2023/06/02 02:27:17;;;;;;;10.75;3.80;;;10.30;98.10;;;;;;5095259;28;20224;-59
2023/06/02 02:29:44;;;;;;;9.82;3.63;;;10.30;98.20;;;;;;5094991;28;20204;-59
2023/06/02 02:32:12;;;;;;;8.20;2.97;;;10.30;98.20;;;;;;5095382;28;20200;-59
2023/06/02 02:34:39;;;;;;;10.43;4.35;;;10.30;98.60;;;;;;5095179;28;20200;-59
2023/06/02 02:37:06;;;;;;;10.10;4.50;;;10.40;98.40;;;;;;5094565;28;20225;-59
2023/06/02 02:39:33;;;;;;;6.03;3.30;;;10.40;98.60;;;;;;5095910;28;20487;-59
2023/06/02 02:42:00;;;;;;;12.37;3.50;;;10.30;98.70;;;;;;5095159;28;20438;-59
2023/06/02 02:44:27;;;;;;;8.40;3.40;;;10.30;98.90;;;;;;5094933;28;20482;-58
2023/06/02 02:46:54;;;;;;;16.27;4.05;;;10.30;99.10;;;;;;5094468;28;20828;-59
2023/06/02 02:49:22;;;;;;;12.63;3.40;;;10.40;99.30;;;;;;5094755;28;20204;-58
2023/06/02 02:51:49;;;;;;;7.67;3.53;;;10.40;99.40;;;;;;5093126;28;20450;-59
2023/06/02 02:54:15;;;;;;;12.45;3.70;;;10.40;99.60;;;;;;5094562;28;20507;-58
2023/06/02 02:56:43;;;;;;;6.87;3.70;;;10.40;99.80;;;;;;5094150;28;20207;-58
2023/06/02 02:59:12;;;;;;;8.55;3.33;;;10.30;99.90;;;;;;5094361;28;20791;-58
2023/06/02 03:01:43;;;;;;;8.17;3.20;;;10.30;99.90;;;;;;5094535;28;20299;-59
2023/06/02 03:04:11;;;;;;;9.27;4.35;;;10.30;99.90;;;;;;5094409;28;20538;-60
2023/06/02 03:06:40;;;;;;;13.55;3.10;;;10.30;99.90;;;;;;5094873;28;20575;-58
2023/06/02 03:09:08;;;;;;;8.65;3.40;;;10.30;99.90;;;;;;5094610;28;20203;-58
2023/06/02 03:11:35;;;;;;;10.37;3.63;;;10.30;99.90;;;;;;5094350;28;20208;-59
2023/06/02 03:14:02;;;;;;;10.00;3.50;;;10.30;99.90;;;;;;5094359;28;20441;-59
2023/06/02 03:16:29;;;;;;;6.45;3.60;;;10.30;99.90;;;;;;5094470;28;20207;-59
2023/06/02 03:18:56;;;;;;;19.38;4.25;;;10.30;99.90;;;;;;5094369;28;20220;-59
2023/06/02 03:21:23;;;;;;;11.80;4.10;;;10.30;99.90;;;;;;5094146;28;20211;-59
2023/06/02 03:23:51;;;;;;;11.80;4.00;;;10.30;99.90;;;;;;5094145;28;20200;-59
2023/06/02 03:26:25;;;;;;;6.10;3.30;;;10.30;99.90;;;;;;5094021;28;20200;-60
2023/06/02 03:28:52;;;;;;;11.93;4.05;;;10.40;99.90;;;;;;5094960;28;20762;-59
2023/06/02 03:31:18;;;;;;;10.32;3.92;;;10.30;99.90;;;;;;5095300;28;20206;-59
2023/06/02 03:33:46;;;;;;;12.73;4.83;;;10.40;99.90;;;;;;5094007;28;20200;-60
2023/06/02 03:36:13;;;;;;;15.23;4.27;;;10.40;99.90;;;;;;5093269;28;20997;-57
2023/06/02 03:38:39;;;;;;;19.10;4.78;;;10.40;99.90;;;;;;5093152;28;20494;-58
2023/06/02 03:41:07;;;;;;;12.83;3.87;;;10.40;99.90;;;;;;5093467;28;20200;-57
2023/06/02 03:43:34;;;;;;;20.67;4.15;;;10.40;99.90;;;;;;5093671;28;20425;-59
2023/06/02 03:46:01;;;;;;;10.17;4.73;;;10.40;99.90;;;;;;5093824;28;20200;-59
2023/06/02 03:48:28;;;;;;;8.93;3.67;;;10.40;99.90;;;;;;5093995;28;20460;-57
2023/06/02 03:50:54;;;;;;;17.90;4.70;;;10.40;99.90;;;;;;5094470;28;20276;-59
2023/06/02 03:53:22;;;;;;;9.10;3.60;;;10.50;99.90;;;;;;5093707;28;20940;-58
2023/06/02 03:55:48;;;;;;;11.17;3.70;;;10.50;99.90;;;;;;5093616;28;20928;-58
2023/06/02 03:58:17;;;;;;;12.20;4.78;;;10.50;99.90;;;;;;5093097;28;20477;-58
2023/06/02 04:00:44;;;;;;;7.50;3.30;;;10.50;99.90;;;;;;5093313;28;20625;-58
2023/06/02 04:03:11;;;;;;;11.03;4.57;;;10.50;99.90;;;;;;5094600;28;20450;-58
2023/06/02 04:05:38;;;;;;;13.50;5.10;;;10.60;99.90;;;;;;5095383;28;20448;-59
2023/06/02 04:08:06;;;;;;;10.75;3.72;;;10.60;99.90;;;;;;5094199;28;20507;-58
2023/06/02 04:11:47;;;;;;;11.70;4.37;;;10.60;99.90;;;;;;5137315;27;20531;-59
2023/06/02 04:14:14;;;;;;;12.60;4.10;;;10.60;99.90;;;;;;5132192;28;20949;-59
2023/06/02 04:16:41;;;;;;;9.75;4.03;;;10.60;99.90;;;;;;5131863;27;20452;-59
2023/06/02 04:19:08;;;;;;;12.17;4.50;;;10.60;99.90;;;;;;5133012;28;20290;-60
2023/06/02 04:21:35;;;;;;;14.27;4.37;;;10.70;99.90;;;;;;5131819;28;20433;-59
2023/06/02 04:24:01;;;;;;;11.02;4.22;;;10.70;99.90;;;;;;5131669;28;20811;-58
2023/06/02 04:26:28;;;;;;;12.30;4.63;;;10.70;99.90;;;;;;5131825;27;20207;-58
2023/06/02 04:28:56;;;;;;;12.00;4.67;;;10.70;99.90;;;;;;5132188;28;20454;-56
2023/06/02 04:31:39;;;;;;;9.87;4.20;;;10.70;99.90;;;;;;5131935;28;20487;-58
2023/06/02 04:34:06;;;;;;;7.37;3.73;;;10.70;99.90;;;;;;5131564;28;20979;-60
2023/06/02 04:36:34;;;;;;;9.50;4.47;;;10.80;99.90;;;;;;5131161;27;20531;-59
2023/06/02 04:39:01;;;;;;;12.47;4.70;;;10.80;99.90;;;;;;5132175;28;20440;-59
2023/06/02 04:41:28;;;;;;;19.90;5.87;;;10.80;99.90;;;;;;5132044;28;20502;-60
2023/06/02 04:43:58;;;;;;;11.00;4.67;;;10.80;99.90;;;;;;5131574;27;20448;-59
2023/06/02 04:46:25;;;;;;;10.50;3.80;;;10.80;99.90;;;;;;5132229;27;20550;-60
2023/06/02 04:48:52;;;;;;;9.43;4.63;;;10.80;99.90;;;;;;5132869;28;20203;-59
2023/06/02 04:51:19;;;;;;;11.23;4.13;;;10.90;99.90;;;;;;5131255;28;20484;-59
2023/06/02 04:53:45;;;;;;;13.80;4.80;;;10.80;99.90;;;;;;5131862;27;20445;-59
2023/06/02 04:56:13;;;;;;;13.67;5.30;;;10.90;99.90;;;;;;5131623;28;20441;-59
2023/06/02 04:58:40;;;;;;;21.47;4.73;;;11.00;99.90;;;;;;5133093;27;20499;-59
2023/06/02 05:01:08;;;;;;;10.80;4.67;;;11.00;99.90;;;;;;5132069;28;20448;-61
2023/06/02 05:03:35;;;;;;;9.10;3.50;;;11.10;99.90;;;;;;5132162;27;20823;-59
2023/06/02 05:06:02;;;;;;;10.43;4.80;;;11.20;99.90;;;;;;5131971;28;20452;-59
2023/06/02 05:08:29;;;;;;;10.03;5.37;;;11.20;99.90;;;;;;5132507;27;20475;-58
2023/06/02 05:10:56;;;;;;;10.77;4.77;;;11.20;99.90;;;;;;5131523;28;20479;-59
2023/06/02 05:13:23;;;;;;;13.73;5.37;;;11.20;99.90;;;;;;5131072;28;20439;-57
2023/06/02 05:15:49;;;;;;;11.07;4.83;;;11.20;99.90;;;;;;5130923;28;20946;-58
2023/06/02 05:18:18;;;;;;;10.60;4.60;;;11.30;99.90;;;;;;5131184;27;20921;-58
2023/06/02 05:20:45;;;;;;;9.23;4.90;;;11.30;99.90;;;;;;5131156;28;20472;-58
2023/06/02 05:23:12;;;;;;;10.43;4.70;;;11.30;99.90;;;;;;5117111;28;20448;-60
2023/06/02 05:25:40;;;;;;;12.67;5.33;;;11.30;99.90;;;;;;5117563;28;20446;-57
2023/06/02 05:28:07;;;;;;;9.63;4.67;;;11.40;99.90;;;;;;5118669;28;20469;-58
2023/06/02 05:30:34;;;;;;;10.53;5.77;;;11.50;99.90;;;;;;5118137;28;20545;-59
2023/06/02 05:33:01;;;;;;;11.07;5.07;;;11.50;99.90;;;;;;5118572;28;20440;-61
2023/06/02 05:35:29;;;;;;;16.23;6.03;;;11.50;99.90;;;;;;5118783;28;20446;-58
2023/06/02 05:37:56;;;;;;;16.10;5.67;;;11.50;99.90;;;;;;5118777;28;20465;-60
2023/06/02 05:40:23;;;;;;;12.27;5.00;;;11.50;99.90;;;;;;5119784;28;20434;-58
2023/06/02 05:42:50;;;;;;;15.87;6.37;;;11.50;99.90;;;;;;5119071;28;20444;-59
2023/06/02 05:45:17;;;;;;;16.80;6.37;;;11.50;99.90;;;;;;5119765;28;20451;-58
2023/06/02 05:47:44;;;;;;;8.73;5.40;;;11.50;99.90;;;;;;5118034;28;20480;-59
2023/06/02 05:50:11;;;;;;;11.47;6.23;;;11.50;99.90;;;;;;5119989;28;20477;-59
2023/06/02 05:52:39;;;;;;;14.67;5.53;;;11.50;99.90;;;;;;5120321;28;20441;-57
2023/06/02 05:55:07;;;;;;;11.27;4.87;;;11.50;99.90;;;;;;5117633;28;20805;-59
2023/06/02 05:57:34;;;;;;;14.70;5.73;;;11.60;99.90;;;;;;5117880;28;20476;-59
2023/06/02 06:00:00;;;;;;;11.80;7.13;;;11.70;99.90;;;;;;5118455;28;20516;-59
2023/06/02 06:02:27;;;;;;;11.77;6.30;;;11.70;99.90;;;;;;5118507;28;20442;-59
2023/06/02 06:04:54;;;;;;;13.20;6.10;;;11.60;99.90;;;;;;5119202;28;20438;-58
2023/06/02 06:07:21;;;;;;;16.93;5.93;;;11.60;99.90;;;;;;5118037;28;20848;-58
2023/06/02 06:09:49;;;;;;;10.33;6.17;;;11.60;99.90;;;;;;5117649;28;20467;-59
2023/06/02 06:12:16;;;;;;;13.90;5.83;;;11.60;99.90;;;;;;5117037;28;20542;-59
2023/06/02 06:14:42;;;;;;;8.47;5.77;;;11.60;99.90;;;;;;5116856;28;20530;-58
2023/06/02 06:17:09;;;;;;;8.43;5.37;;;11.70;99.90;;;;;;5117902;28;20465;-59
2023/06/02 06:19:36;;;;;;;17.10;7.13;;;11.80;99.90;;;;;;5117527;28;20441;-58
2023/06/02 06:22:03;;;;;;;10.77;6.57;;;11.80;99.90;;;;;;5117507;28;20465;-59
2023/06/02 06:24:30;;;;;;;15.23;6.50;;;11.80;99.90;;;;;;5117029;28;20807;-59
2023/06/02 06:26:58;;;;;;;12.53;6.50;;;11.80;99.90;;;;;;5116981;28;20468;-58
2023/06/02 06:29:24;;;;;;;14.37;6.57;;;11.80;99.90;;;;;;5117034;28;20947;-60
2023/06/02 06:31:51;;;;;;;12.83;7.30;;;11.80;99.90;;;;;;5116846;28;20845;-59
2023/06/02 06:34:18;;;;;;;9.60;6.13;;;11.90;99.90;;;;;;5115708;28;20441;-58
2023/06/02 06:36:47;;;;;;;16.63;5.70;;;12.00;99.90;;;;;;5117663;28;20565;-58
2023/06/02 06:39:14;;;;;;;6.67;4.80;;;12.10;99.90;;;;;;5117651;28;20533;-57
2023/06/02 06:41:42;;;;;;;20.17;6.33;;;12.20;99.90;;;;;;5117475;28;20524;-58
2023/06/02 06:44:10;;;;;;;10.30;5.80;;;12.40;99.90;;;;;;5118166;28;20511;-59
2023/06/02 06:46:37;;;;;;;11.90;5.43;;;12.50;99.90;;;;;;5117292;28;20437;-59
2023/06/02 06:49:03;;;;;;;11.63;6.37;;;12.50;99.90;;;;;;5117129;28;20446;-59
2023/06/02 06:51:30;;;;;;;7.30;5.30;;;12.50;99.90;;;;;;5118493;28;20483;-60
2023/06/02 06:53:57;;;;;;;11.10;5.70;;;12.60;99.90;;;;;;5119573;28;20441;-60
2023/06/02 06:56:25;;;;;;;12.37;5.30;;;12.80;99.90;;;;;;5116570;28;20455;-59
2023/06/02 06:58:52;;;;;;;12.67;5.67;;;12.90;99.90;;;;;;5117456;28;20442;-60
2023/06/02 07:01:20;;;;;;;8.30;5.37;;;13.00;99.90;;;;;;5116995;28;20453;-59
2023/06/02 07:03:47;;;;;;;11.00;4.53;;;13.10;99.90;;;;;;5116956;28;20998;-58
2023/06/02 07:06:14;;;;;;;9.87;5.50;;;13.10;99.90;;;;;;5117751;28;20479;-60
2023/06/02 07:08:40;;;;;;;16.13;5.30;;;13.10;99.90;;;;;;5117101;28;20450;-59
2023/06/02 07:11:07;;;;;;;12.20;5.47;;;13.10;99.90;;;;;;5117601;28;20481;-60
2023/06/02 07:13:34;;;;;;;11.40;5.53;;;13.20;99.90;;;;;;5121823;28;21034;-60
2023/06/02 07:16:01;;;;;;;11.20;4.60;;;13.30;99.90;;;;;;5121891;28;20809;-59
2023/06/02 07:18:29;;;;;;;18.40;5.43;;;13.50;99.90;;;;;;5124075;28;20463;-59
2023/06/02 07:20:56;;;;;;;9.23;5.50;;;13.50;99.70;;;;;;5122171;28;20450;-59
2023/06/02 07:23:22;;;;;;;9.87;4.77;;;13.60;99.40;;;;;;5121804;28;20472;-60
2023/06/02 07:25:49;;;;;;;8.50;4.90;;;13.60;99.10;;;;;;5117511;28;20445;-59
2023/06/02 07:28:16;;;;;;;11.23;4.60;;;13.70;98.90;;;;;;5116355;28;20472;-59
2023/06/02 07:30:48;;;;;;;8.00;5.03;;;13.80;98.50;;;;;;5116805;28;20496;-60
2023/06/02 07:33:15;;;;;;;11.57;4.87;;;13.90;98.10;;;;;;5116412;28;20498;-60
2023/06/02 07:35:44;;;;;;;8.93;5.03;;;14.00;97.60;;;;;;5116879;28;20446;-59
2023/06/02 07:38:11;;;;;;;7.70;5.00;;;14.10;97.40;;;;;;5116548;28;20514;-59
2023/06/02 07:40:37;;;;;;;8.60;4.90;;;14.20;96.90;;;;;;5116288;28;20456;-61
2023/06/02 07:43:05;;;;;;;9.50;4.97;;;14.40;96.30;;;;;;5116942;28;20452;-59
2023/06/02 07:45:32;;;;;;;11.43;5.70;;;14.50;95.90;;;;;;5116678;28;20444;-59
2023/06/02 07:47:58;;;;;;;13.33;4.73;;;14.60;95.30;;;;;;5116971;28;20835;-59
2023/06/02 07:50:25;;;;;;;9.20;4.43;;;14.70;95.10;;;;;;5116720;28;20441;-59
2023/06/02 07:52:54;;;;;;;11.23;5.17;;;14.90;94.30;;;;;;5119177;28;20433;-60
2023/06/02 07:55:22;;;;;;;6.43;4.70;;;15.00;93.70;;;;;;5117021;28;20449;-59
2023/06/02 07:57:48;;;;;;;6.50;4.27;;;15.20;93.20;;;;;;5117533;28;20461;-60
2023/06/02 08:00:17;;;;;;;7.43;4.93;;;15.30;92.50;;;;;;5116563;28;20437;-58
2023/06/02 08:02:46;;;;;;;7.57;4.43;;;15.30;91.80;;;;;;5117783;28;20812;-59
2023/06/02 08:05:13;;;;;;;8.33;4.50;;;15.30;91.10;;;;;;5118692;28;20491;-59
2023/06/02 08:07:40;;;;;;;8.23;4.63;;;15.40;90.80;;;;;;5117645;28;20461;-59
2023/06/02 08:10:12;;;;;;;7.50;4.60;;;15.50;90.00;;;;;;5116599;28;20460;-60
2023/06/02 08:12:39;;;;;;;6.67;4.40;;;15.70;88.90;;;;;;5117174;28;20465;-60
2023/06/02 08:15:07;;;;;;;9.73;6.30;;;15.90;86.00;;;;;;5116032;28;20536;-59
2023/06/02 08:17:34;;;;;;;8.10;4.90;;;16.00;85.20;;;;;;5114853;28;21001;-60
2023/06/02 08:20:01;;;;;;;11.17;4.80;;;16.10;83.80;;;;;;5115502;28;20762;-58
2023/06/02 08:22:30;;;;;;;8.20;4.20;;;16.10;82.40;;;;;;5115629;28;20445;-60
2023/06/02 08:24:57;;;;;;;15.77;5.20;;;16.20;81.50;;;;;;5115851;28;20530;-60
2023/06/02 08:27:25;;;;;;;7.50;4.47;;;16.30;80.00;;;;;;5115155;28;20775;-59
2023/06/02 08:29:53;;;;;;;8.33;4.73;;;16.50;78.70;;;;;;5115536;28;20445;-60
2023/06/02 08:32:22;;;;;;;8.20;4.70;;;16.80;76.10;;;;;;5116082;28;20477;-59
2023/06/02 08:34:50;;;;;;;8.93;5.70;;;16.80;74.40;;;;;;5115776;28;20441;-59
2023/06/02 08:37:17;;;;;;;7.70;4.57;;;16.80;74.40;;;;;;5115257;28;20473;-60
2023/06/02 08:39:44;;;;;;;8.47;4.17;;;16.90;73.90;;;;;;5114769;28;20445;-59
2023/06/02 08:42:11;;;;;;;12.87;5.70;;;17.10;72.80;;;;;;5114627;28;20949;-60
2023/06/02 08:44:41;;;;;;;7.93;4.73;;;17.10;72.10;;;;;;5115100;28;20445;-59
2023/06/02 08:47:10;;;;;;;7.27;4.20;;;17.10;71.50;;;;;;5114685;28;20473;-59
2023/06/02 08:49:39;;;;;;;8.37;4.27;;;17.00;70.80;;;;;;5138392;22;20525;-63
2023/06/02 08:52:11;;;;;;;10.00;4.80;;;17.00;70.80;;;;;;5113355;28;20478;-61
2023/06/02 08:54:39;;;;;;;10.80;4.40;;;17.10;70.20;;;;;;5113757;28;20425;-61
2023/06/02 08:57:07;;;;;;;9.43;3.97;;;17.30;69.90;;;;;;5114435;28;20876;-63
2023/06/02 08:59:34;;;;;;;8.03;4.10;;;17.50;68.70;;;;;;5117056;28;20876;-62
2023/06/02 09:02:03;;;;;;;9.87;4.03;;;17.70;66.80;;;;;;5117155;28;20441;-62
2023/06/02 09:04:30;;;;;;;8.67;4.00;;;17.90;65.30;;;;;;5117026;28;20441;-62
2023/06/02 09:07:16;;;;;;;13.70;5.43;;;18.10;64.00;;;;;;5117188;28;20820;-61
2023/06/02 09:09:45;;;;;;;8.30;3.77;;;18.30;63.10;;;;;;5116885;28;20549;-62
2023/06/02 09:12:12;;;;;;;13.63;4.10;;;18.40;62.20;;;;;;5117227;28;20484;-61
2023/06/02 09:14:40;;;;;;;9.00;4.33;;;18.50;61.60;;;;;;5117188;28;20456;-63
2023/06/02 09:17:24;;;;;;;9.33;4.20;;;18.50;61.40;;;;;;5115903;28;20810;-62
2023/06/02 09:19:52;;;;;;;6.70;3.77;;;18.40;61.10;;;;;;5116285;28;20987;-62
2023/06/02 09:22:19;;;;;;;7.77;4.20;;;18.50;61.00;;;;;;5116673;28;20448;-63
2023/06/02 09:24:46;;;;;;;6.70;3.50;;;18.70;60.10;;;;;;5116457;28;20566;-64
2023/06/02 09:27:13;;;;;;;13.43;3.50;;;18.60;58.80;;;;;;5116305;28;20451;-62
2023/06/02 09:29:40;;;;;;;12.10;3.97;;;18.40;59.10;;;;;;5116365;28;20461;-63
2023/06/02 09:32:14;;;;;;;7.47;3.83;;;18.30;59.20;;;;;;5116248;28;20483;-62
2023/06/02 09:34:43;;;;;;;11.03;3.47;;;18.50;59.10;;;;;;5116317;28;20433;-61
2023/06/02 09:37:12;;;;;;;15.50;4.80;;;18.80;58.60;;;;;;5115691;28;20451;-62
2023/06/02 09:39:42;;;;;;;8.30;4.07;;;19.00;57.80;;;;;;5115921;28;20472;-62
2023/06/02 09:42:09;;;;;;;9.13;4.10;;;19.00;57.50;;;;;;5116377;28;20437;-62
2023/06/02 09:44:36;;;;;;;8.83;3.77;;;19.00;57.70;;;;;;5116262;28;20451;-62
2023/06/02 09:47:18;;;;;;;8.30;3.53;;;19.00;57.60;;;;;;5116370;28;20460;-62
2023/06/02 09:49:46;;;;;;;8.73;3.83;;;19.10;57.20;;;;;;5115432;28;20473;-62
2023/06/02 09:52:15;;;;;;;11.17;3.87;;;19.10;56.60;;;;;;5115717;28;20482;-61
2023/06/02 09:54:43;;;;;;;7.63;4.10;;;19.00;56.50;;;;;;5115637;28;20449;-62
2023/06/02 09:57:10;;;;;;;6.00;3.73;;;19.00;56.60;;;;;;5115701;28;20793;-62
2023/06/02 09:59:39;;;;;;;18.40;5.13;;;18.90;56.50;;;;;;5115630;28;20464;-61
2023/06/02 10:02:07;;;;;;;7.10;4.07;;;18.70;56.70;;;;;;5115253;28;20444;-62
2023/06/02 10:04:34;;;;;;;7.43;3.60;;;18.60;57.30;;;;;;5115895;28;20441;-62
2023/06/02 10:07:15;;;;;;;7.60;3.67;;;18.60;57.40;;;;;;5116735;28;20452;-63
2023/06/02 10:09:53;;;;;;;8.37;3.93;;;18.60;57.70;;;;;;5116505;28;20496;-62
2023/06/02 10:12:50;;;;;;;8.73;3.43;;;18.80;57.40;;;;;;5117460;28;20465;-62
2023/06/02 10:15:40;;;;;;;9.10;4.30;;;19.00;56.80;;;;;;5116951;28;20480;-61
2023/06/02 10:18:25;;;;;;;11.43;3.17;;;19.00;56.30;;;;;;5117217;28;20524;-61
2023/06/02 10:21:03;;;;;;;9.83;3.57;;;19.10;56.00;;;;;;5117857;28;20435;-61
2023/06/02 10:23:41;;;;;;;9.00;3.27;;;19.30;55.60;;;;;;5117065;28;20432;-61
2023/06/02 10:26:23;;;;;;;8.87;3.20;;;19.60;55.10;;;;;;5116461;28;20437;-62
2023/06/02 10:28:53;;;;;;;10.50;3.20;;;20.00;54.30;;;;;;5117080;28;20847;-61
2023/06/02 10:31:31;;;;;;;7.00;2.97;;;20.20;53.80;;;;;;5116487;28;20437;-62
2023/06/02 10:34:00;;;;;;;8.60;4.00;;;20.20;53.50;;;;;;5116750;28;20445;-62
2023/06/02 10:36:27;;;;;;;6.67;2.90;;;20.00;53.40;;;;;;5117166;28;20446;-62
2023/06/02 10:38:56;;;;;;;9.93;3.57;;;19.70;53.90;;;;;;5116872;28;20469;-62
2023/06/02 10:41:57;;;;;;;8.50;2.97;;;19.50;54.50;;;;;;5116873;28;20486;-62
2023/06/02 10:44:25;;;;;;;15.77;3.60;;;19.60;54.70;;;;;;5116770;28;20514;-61
2023/06/02 10:47:25;;;;;;;8.23;3.10;;;19.80;54.30;;;;;;5116415;28;20450;-62
2023/06/02 10:49:53;;;;;;;7.53;3.00;;;20.30;53.70;;;;;;5116967;28;20474;-63
2023/06/02 10:52:20;;;;;;;4.33;2.77;;;20.60;52.70;;;;;;5118126;28;20478;-61
2023/06/02 10:55:24;;;;;;;4.20;2.43;;;20.60;52.50;;;;;;5116389;28;20467;-61
2023/06/02 10:57:52;;;;;;;8.53;4.10;;;20.60;52.30;;;;;;5116837;28;20506;-61
2023/06/02 11:00:43;;;;;;;10.93;2.67;;;20.60;52.20;;;;;;5116992;28;20835;-61
2023/06/02 11:03:32;;;;;;;5.10;2.60;;;20.60;52.00;;;;;;5115963;28;20442;-63
2023/06/02 11:06:27;;;;;;;9.50;4.20;;;20.80;51.50;;;;;;5115182;28;20997;-60
2023/06/02 11:08:54;;;;;;;4.50;2.93;;;21.20;50.80;;;;;;5068576;28;20479;-62
2023/06/02 11:11:51;;;;;;;6.13;2.30;;;21.70;50.20;;;;;;5115405;28;20453;-62
2023/06/02 11:14:19;;;;;;;6.27;3.20;;;21.90;49.00;;;;;;5115756;28;20451;-62
2023/06/02 11:16:45;;;;;;;7.77;2.87;;;21.60;49.00;;;;;;5117182;28;20942;-62
2023/06/02 11:19:13;;;;;;;6.07;3.17;;;21.40;49.50;;;;;;5115903;28;20467;-62
2023/06/02 11:21:40;;;;;;;6.13;3.33;;;21.10;50.00;;;;;;5115186;28;20444;-59
2023/06/02 11:24:08;;;;;;;9.90;3.43;;;20.90;50.60;;;;;;5115195;28;20453;-62
2023/06/02 11:26:48;;;;;;;7.67;3.13;;;20.70;51.00;;;;;;5115873;28;20800;-63
2023/06/02 11:29:19;;;;;;;6.27;2.60;;;20.50;51.30;;;;;;5116345;28;20466;-60
2023/06/02 11:31:49;;;;;;;5.67;2.60;;;20.50;51.70;;;;;;5114652;28;20454;-62
2023/06/02 11:34:17;;;;;;;9.47;3.10;;;20.70;51.40;;;;;;5114881;28;20946;-64
2023/06/02 11:36:48;;;;;;;8.80;3.70;;;20.90;51.30;;;;;;5115953;28;20924;-63
2023/06/02 11:39:15;;;;;;;16.70;3.97;;;21.00;51.00;;;;;;5114772;28;20611;-63
2023/06/02 11:41:55;;;;;;;7.73;2.93;;;21.10;51.00;;;;;;5115131;28;20456;-64
2023/06/02 11:44:24;;;;;;;5.87;3.10;;;21.20;50.80;;;;;;5115111;28;20444;-61
2023/06/02 11:46:52;;;;;;;7.30;3.23;;;21.20;50.70;;;;;;5119663;28;20459;-63
2023/06/02 11:49:19;;;;;;;5.10;2.50;;;21.10;50.90;;;;;;5119800;28;20480;-63
2023/06/02 11:51:46;;;;;;;5.37;3.47;;;21.00;51.00;;;;;;5115665;28;20543;-63
2023/06/02 11:54:13;;;;;;;6.70;3.30;;;20.90;51.20;;;;;;5115502;28;20519;-63
2023/06/02 11:56:44;;;;;;;7.33;3.57;;;21.00;51.20;;;;;;5115061;28;20538;-61
2023/06/02 11:59:16;;;;;;;9.97;3.90;;;21.10;51.20;;;;;;5114333;28;20510;-62
2023/06/02 12:01:44;;;;;;;5.80;2.90;;;21.10;50.90;;;;;;5114989;28;20436;-62
2023/06/02 12:04:13;;;;;;;13.60;5.70;;;21.10;50.80;;;;;;5114877;28;20442;-62
2023/06/02 12:06:46;;;;;;;6.07;3.40;;;21.10;50.70;;;;;;5115072;28;20470;-62
2023/06/02 12:09:14;;;;;;;5.43;2.90;;;21.00;50.70;;;;;;5115998;28;20467;-63
2023/06/02 12:11:41;;;;;;;5.97;3.13;;;20.90;50.80;;;;;;5114826;28;20558;-61
2023/06/02 12:14:09;;;;;;;8.77;3.47;;;20.90;51.00;;;;;;5114477;28;20478;-63
2023/06/02 12:16:38;;;;;;;6.83;3.70;;;20.80;51.10;;;;;;5113946;28;20446;-61
2023/06/02 12:19:19;;;;;;;9.33;3.53;;;20.90;51.10;;;;;;5114505;28;20557;-62
2023/06/02 12:21:46;;;;;;;8.90;2.60;;;21.00;51.10;;;;;;5113584;28;20445;-61
2023/06/02 12:24:28;;;;;;;6.90;3.00;;;21.80;51.10;;;;;;5113707;28;20947;-63
2023/06/02 12:26:55;;;;;;;6.67;2.30;;;22.80;48.90;;;;;;5113601;28;20423;-64
2023/06/02 12:29:22;;;;;;;7.30;3.00;;;22.90;48.10;;;;;;5114862;28;20557;-61
2023/06/02 12:31:56;;;;;;;10.60;3.57;;;22.40;48.50;;;;;;5116389;28;20448;-63
2023/06/02 12:34:24;;;;;;;5.07;2.80;;;21.80;49.50;;;;;;5117646;28;20422;-63
2023/06/02 12:36:51;;;;;;;8.60;3.47;;;21.10;50.90;;;;;;5118330;28;20442;-62
2023/06/02 12:39:18;;;;;;;13.50;3.13;;;20.70;52.10;;;;;;5118493;28;20462;-63
2023/06/02 12:41:45;;;;;;;7.17;3.43;;;20.50;52.60;;;;;;5118172;28;20484;-62
2023/06/02 12:44:12;;;;;;;12.00;3.40;;;20.30;52.90;;;;;;5118117;28;20442;-64
2023/06/02 12:46:39;;;;;;;5.60;3.00;;;20.00;53.30;;;;;;5117876;28;20445;-62
2023/06/02 12:49:08;;;;;;;7.40;3.10;;;19.60;54.00;;;;;;5117093;28;20484;-64
2023/06/02 12:51:37;;;;;;;7.60;2.77;;;19.40;54.80;;;;;;5117784;28;20480;-62
2023/06/02 12:54:04;;;;;;;9.43;4.10;;;19.30;55.10;;;;;;5117135;28;20473;-62